sensor_id;sensor_type;location;lat;lon;timestamp;pressure;altitude;pressure_sealevel;temperature;humidity
64460;BME280;50828;53.756;21.140;2023-02-13T00:01:18;101236.77;;;3.93;76.28
64460;BME280;50828;53.756;21.140;2023-02-13T00:06:26;101230.86;;;3.96;76.12
64460;BME280;50828;53.756;21.140;2023-02-13T00:11:35;101228.62;;;3.99;76.15
64460;BME280;50828;53.756;21.140;2023-02-13T00:16:42;101226.02;;;3.99;76.24
64460;BME280;50828;53.756;21.140;2023-02-13T00:21:51;101215.23;;;4.03;76.28
64460;BME280;50828;53.756;21.140;2023-02-13T00:26:59;101210.70;;;4.08;76.20
64460;BME280;50828;53.756;21.140;2023-02-13T00:32:08;101215.58;;;4.10;76.40
64460;BME280;50828;53.756;21.140;2023-02-13T00:37:17;101212.63;;;4.11;76.48
64460;BME280;50828;53.756;21.140;2023-02-13T00:42:25;101206.34;;;4.07;76.26
64460;BME280;50828;53.756;21.140;2023-02-13T00:47:33;101215.96;;;4.16;76.34
64460;BME280;50828;53.756;21.140;2023-02-13T00:52:40;101215.62;;;4.17;76.41
64460;BME280;50828;53.756;21.140;2023-02-13T00:57:52;101214.93;;;4.20;76.37
64460;BME280;50828;53.756;21.140;2023-02-13T01:02:59;101210.92;;;4.22;76.44
64460;BME280;50828;53.756;21.140;2023-02-13T01:08:07;101209.90;;;4.26;76.62
64460;BME280;50828;53.756;21.140;2023-02-13T01:13:16;101206.74;;;4.27;76.42
64460;BME280;50828;53.756;21.140;2023-02-13T01:18:24;101202.75;;;4.28;76.57
64460;BME280;50828;53.756;21.140;2023-02-13T01:23:34;101203.97;;;4.29;76.57
64460;BME280;50828;53.756;21.140;2023-02-13T01:28:43;101206.42;;;4.30;76.60
64460;BME280;50828;53.756;21.140;2023-02-13T01:33:54;101211.13;;;4.32;76.68
64460;BME280;50828;53.756;21.140;2023-02-13T01:39:04;101210.80;;;4.35;76.35
64460;BME280;50828;53.756;21.140;2023-02-13T01:49:58;101213.77;;;4.37;76.66
64460;BME280;50828;53.756;21.140;2023-02-13T01:55:09;101211.33;;;4.39;76.62
64460;BME280;50828;53.756;21.140;2023-02-13T02:00:19;101205.73;;;4.39;76.60
64460;BME280;50828;53.756;21.140;2023-02-13T02:05:29;101205.75;;;4.40;76.51
64460;BME280;50828;53.756;21.140;2023-02-13T02:10:39;101204.88;;;4.41;76.56
64460;BME280;50828;53.756;21.140;2023-02-13T02:15:48;101204.37;;;4.44;76.42
64460;BME280;50828;53.756;21.140;2023-02-13T02:27:11;101194.60;;;4.47;76.42
64460;BME280;50828;53.756;21.140;2023-02-13T02:32:44;101190.06;;;4.49;76.31
64460;BME280;50828;53.756;21.140;2023-02-13T02:38:10;101190.77;;;4.51;76.21
64460;BME280;50828;53.756;21.140;2023-02-13T02:43:29;101192.86;;;4.53;76.15
64460;BME280;50828;53.756;21.140;2023-02-13T02:48:47;101198.29;;;4.53;76.01
64460;BME280;50828;53.756;21.140;2023-02-13T02:54:21;101202.45;;;4.53;76.21
64460;BME280;50828;53.756;21.140;2023-02-13T02:59:53;101201.94;;;4.55;76.23
64460;BME280;50828;53.756;21.140;2023-02-13T03:05:23;101211.02;;;4.57;76.12
64460;BME280;50828;53.756;21.140;2023-02-13T03:10:57;101211.89;;;4.59;76.11
64460;BME280;50828;53.756;21.140;2023-02-13T03:16:25;101217.48;;;4.60;76.09
64460;BME280;50828;53.756;21.140;2023-02-13T03:21:56;101214.17;;;4.62;75.90
64460;BME280;50828;53.756;21.140;2023-02-13T03:27:31;101213.31;;;4.63;76.01
64460;BME280;50828;53.756;21.140;2023-02-13T03:33:11;101219.58;;;4.64;75.84
64460;BME280;50828;53.756;21.140;2023-02-13T03:38:26;101221.15;;;4.64;75.71
64460;BME280;50828;53.756;21.140;2023-02-13T03:43:40;101227.80;;;4.65;75.70
64460;BME280;50828;53.756;21.140;2023-02-13T03:48:49;101225.88;;;4.67;75.47
64460;BME280;50828;53.756;21.140;2023-02-13T03:54:19;101223.95;;;4.67;75.48
64460;BME280;50828;53.756;21.140;2023-02-13T03:59:47;101225.34;;;4.66;75.67
64460;BME280;50828;53.756;21.140;2023-02-13T04:05:02;101219.23;;;4.67;75.33
64460;BME280;50828;53.756;21.140;2023-02-13T04:10:13;101225.88;;;4.68;75.48
64460;BME280;50828;53.756;21.140;2023-02-13T04:15:26;101223.96;;;4.70;75.45
64460;BME280;50828;53.756;21.140;2023-02-13T04:20:37;101225.01;;;4.72;75.48
64460;BME280;50828;53.756;21.140;2023-02-13T04:25:49;101218.90;;;4.73;75.18
64460;BME280;50828;53.756;21.140;2023-02-13T04:30:58;101216.27;;;4.75;75.01
64460;BME280;50828;53.756;21.140;2023-02-13T04:36:08;101211.75;;;4.76;75.20
64460;BME280;50828;53.756;21.140;2023-02-13T04:41:16;101218.55;;;4.78;74.81
64460;BME280;50828;53.756;21.140;2023-02-13T04:46:25;101218.38;;;4.76;74.79
64460;BME280;50828;53.756;21.140;2023-02-13T04:51:34;101222.05;;;4.75;74.81
64460;BME280;50828;53.756;21.140;2023-02-13T04:56:42;101218.72;;;4.73;74.62
64460;BME280;50828;53.756;21.140;2023-02-13T05:01:51;101218.55;;;4.71;74.66
64460;BME280;50828;53.756;21.140;2023-02-13T05:06:59;101219.59;;;4.68;74.65
64460;BME280;50828;53.756;21.140;2023-02-13T05:12:08;101217.49;;;4.67;74.68
64460;BME280;50828;53.756;21.140;2023-02-13T05:17:16;101223.95;;;4.65;74.79
64460;BME280;50828;53.756;21.140;2023-02-13T05:22:24;101218.70;;;4.56;74.54
64460;BME280;50828;53.756;21.140;2023-02-13T05:27:51;101231.27;;;4.63;74.61
64460;BME280;50828;53.756;21.140;2023-02-13T05:32:59;101230.93;;;4.63;74.44
64460;BME280;50828;53.756;21.140;2023-02-13T05:38:08;101233.19;;;4.62;74.60
64460;BME280;50828;53.756;21.140;2023-02-13T05:43:16;101233.73;;;4.62;74.50
64460;BME280;50828;53.756;21.140;2023-02-13T05:48:26;101231.27;;;4.62;74.44
64460;BME280;50828;53.756;21.140;2023-02-13T05:53:34;101227.25;;;4.60;74.39
64460;BME280;50828;53.756;21.140;2023-02-13T05:58:43;101232.13;;;4.58;74.51
64460;BME280;50828;53.756;21.140;2023-02-13T06:03:52;101232.66;;;4.57;74.47
64460;BME280;50828;53.756;21.140;2023-02-13T06:09:05;101229.52;;;4.55;74.52
64460;BME280;50828;53.756;21.140;2023-02-13T06:14:14;101232.11;;;4.53;74.51
64460;BME280;50828;53.756;21.140;2023-02-13T06:19:23;101229.85;;;4.51;74.39
64460;BME280;50828;53.756;21.140;2023-02-13T06:24:31;101233.69;;;4.49;74.48
64460;BME280;50828;53.756;21.140;2023-02-13T06:29:39;101235.24;;;4.47;74.55
64460;BME280;50828;53.756;21.140;2023-02-13T06:34:47;101240.47;;;4.46;74.60
64460;BME280;50828;53.756;21.140;2023-02-13T06:39:54;101241.17;;;4.47;74.63
64460;BME280;50828;53.756;21.140;2023-02-13T06:45:02;101245.55;;;4.47;74.63
64460;BME280;50828;53.756;21.140;2023-02-13T06:50:15;101243.27;;;4.47;74.57
64460;BME280;50828;53.756;21.140;2023-02-13T06:55:23;101240.14;;;4.49;74.65
64460;BME280;50828;53.756;21.140;2023-02-13T07:00:31;101241.36;;;4.51;74.63
64460;BME280;50828;53.756;21.140;2023-02-13T07:05:41;101235.95;;;4.51;74.61
64460;BME280;50828;53.756;21.140;2023-02-13T07:10:49;101232.13;;;4.52;74.61
64460;BME280;50828;53.756;21.140;2023-02-13T07:16:01;101233.52;;;4.53;74.78
64460;BME280;50828;53.756;21.140;2023-02-13T07:21:09;101231.95;;;4.53;74.83
64460;BME280;50828;53.756;21.140;2023-02-13T07:26:17;101225.15;;;4.54;74.71
64460;BME280;50828;53.756;21.140;2023-02-13T07:31:26;101227.42;;;4.57;74.80
64460;BME280;50828;53.756;21.140;2023-02-13T07:36:35;101224.63;;;4.58;74.84
64460;BME280;50828;53.756;21.140;2023-02-13T07:41:43;101230.05;;;4.60;74.97
64460;BME280;50828;53.756;21.140;2023-02-13T07:46:53;101230.59;;;4.64;74.74
64460;BME280;50828;53.756;21.140;2023-02-13T07:52:03;101223.95;;;4.66;74.96
64460;BME280;50828;53.756;21.140;2023-02-13T07:57:11;101231.83;;;4.70;75.02
64460;BME280;50828;53.756;21.140;2023-02-13T08:02:18;101238.10;;;4.75;75.03
64460;BME280;50828;53.756;21.140;2023-02-13T08:07:27;101234.44;;;4.78;74.87
64460;BME280;50828;53.756;21.140;2023-02-13T08:12:36;101221.88;;;4.81;74.61
64460;BME280;50828;53.756;21.140;2023-02-13T08:17:44;101223.61;;;4.82;74.72
64460;BME280;50828;53.756;21.140;2023-02-13T08:22:52;101233.23;;;4.85;74.55
64460;BME280;50828;53.756;21.140;2023-02-13T08:28:01;101233.05;;;4.87;74.53
64460;BME280;50828;53.756;21.140;2023-02-13T08:33:11;101238.46;;;4.88;74.59
64460;BME280;50828;53.756;21.140;2023-02-13T08:38:19;101241.96;;;4.89;74.48
64460;BME280;50828;53.756;21.140;2023-02-13T08:43:27;101236.55;;;4.92;74.46
64460;BME280;50828;53.756;21.140;2023-02-13T08:48:36;101223.81;;;4.95;74.48
64460;BME280;50828;53.756;21.140;2023-02-13T08:53:45;101219.80;;;5.00;74.25
64460;BME280;50828;53.756;21.140;2023-02-13T08:58:54;101211.77;;;5.02;74.20
64460;BME280;50828;53.756;21.140;2023-02-13T09:04:01;101213.35;;;5.04;74.28
64460;BME280;50828;53.756;21.140;2023-02-13T09:09:08;101209.84;;;5.07;74.08
64460;BME280;50828;53.756;21.140;2023-02-13T09:14:16;101209.33;;;5.13;74.27
64460;BME280;50828;53.756;21.140;2023-02-13T09:19:25;101215.60;;;5.20;74.05
64460;BME280;50828;53.756;21.140;2023-02-13T09:24:34;101218.92;;;5.27;74.13
64460;BME280;50828;53.756;21.140;2023-02-13T09:29:42;101230.08;;;5.36;74.39
64460;BME280;50828;53.756;21.140;2023-02-13T09:34:49;101226.41;;;5.48;74.32
64460;BME280;50828;53.756;21.140;2023-02-13T09:39:58;101221.67;;;5.56;73.86
64460;BME280;50828;53.756;21.140;2023-02-13T09:45:09;101222.02;;;5.64;73.77
64460;BME280;50828;53.756;21.140;2023-02-13T09:50:17;101224.25;;;5.74;73.83
64460;BME280;50828;53.756;21.140;2023-02-13T09:55:32;101226.34;;;5.80;73.24
64460;BME280;50828;53.756;21.140;2023-02-13T10:00:49;101214.79;;;5.85;73.11
64460;BME280;50828;53.756;21.140;2023-02-13T10:06:07;101210.22;;;5.92;73.10
64460;BME280;50828;53.756;21.140;2023-02-13T10:11:33;101202.54;;;5.98;72.71
64460;BME280;50828;53.756;21.140;2023-02-13T10:16:45;101199.02;;;6.01;72.23
64460;BME280;50828;53.756;21.140;2023-02-13T10:21:57;101196.04;;;6.05;71.95
64460;BME280;50828;53.756;21.140;2023-02-13T10:27:09;101197.08;;;6.06;71.65
64460;BME280;50828;53.756;21.140;2023-02-13T10:32:28;101197.42;;;6.07;71.53
64460;BME280;50828;53.756;21.140;2023-02-13T10:37:39;101190.94;;;6.11;71.50
64460;BME280;50828;53.756;21.140;2023-02-13T10:42:54;101185.66;;;6.17;71.42
64460;BME280;50828;53.756;21.140;2023-02-13T10:48:16;101181.09;;;6.21;71.15
64460;BME280;50828;53.756;21.140;2023-02-13T10:53:42;101175.30;;;6.24;71.06
64460;BME280;50828;53.756;21.140;2023-02-13T10:59:07;101165.33;;;6.27;71.07
64460;BME280;50828;53.756;21.140;2023-02-13T11:04:20;101170.55;;;6.30;71.01
64460;BME280;50828;53.756;21.140;2023-02-13T11:09:29;101179.10;;;6.34;71.01
64460;BME280;50828;53.756;21.140;2023-02-13T11:14:38;101171.90;;;6.38;70.68
64460;BME280;50828;53.756;21.140;2023-02-13T11:20:03;101168.73;;;6.41;70.18
64460;BME280;50828;53.756;21.140;2023-02-13T11:25:19;101165.04;;;6.44;70.46
64460;BME280;50828;53.756;21.140;2023-02-13T11:30:35;101160.15;;;6.43;70.17
64460;BME280;50828;53.756;21.140;2023-02-13T11:35:45;101154.89;;;6.45;70.16
64460;BME280;50828;53.756;21.140;2023-02-13T11:41:05;101144.37;;;6.46;69.91
64460;BME280;50828;53.756;21.140;2023-02-13T11:46:19;101140.54;;;6.46;69.94
64460;BME280;50828;53.756;21.140;2023-02-13T11:51:42;101133.73;;;6.42;69.73
64460;BME280;50828;53.756;21.140;2023-02-13T11:56:53;101128.86;;;6.37;69.67
64460;BME280;50828;53.756;21.140;2023-02-13T12:02:19;101131.52;;;6.34;69.76
64460;BME280;50828;53.756;21.140;2023-02-13T12:07:29;101127.15;;;6.32;69.44
64460;BME280;50828;53.756;21.140;2023-02-13T12:12:41;101115.96;;;6.30;69.67
64460;BME280;50828;53.756;21.140;2023-02-13T12:18:04;101115.61;;;6.30;69.37
64460;BME280;50828;53.756;21.140;2023-02-13T12:23:29;101108.45;;;6.29;69.51
64460;BME280;50828;53.756;21.140;2023-02-13T12:28:49;101112.83;;;6.28;69.12
64460;BME280;50828;53.756;21.140;2023-02-13T12:39:55;101111.45;;;6.25;69.26
64460;BME280;50828;53.756;21.140;2023-02-13T12:45:22;101111.11;;;6.24;69.37
64460;BME280;50828;53.756;21.140;2023-02-13T12:50:45;101100.94;;;6.27;69.31
64460;BME280;50828;53.756;21.140;2023-02-13T12:56:27;101088.87;;;6.26;69.10
64460;BME280;50828;53.756;21.140;2023-02-13T13:01:56;101081.36;;;6.24;68.95
64460;BME280;50828;53.756;21.140;2023-02-13T13:07:24;101079.27;;;6.23;68.97
64460;BME280;50828;53.756;21.140;2023-02-13T13:12:47;101072.10;;;6.22;69.30
64460;BME280;50828;53.756;21.140;2023-02-13T13:17:59;101068.96;;;6.22;69.25
64460;BME280;50828;53.756;21.140;2023-02-13T13:23:17;101072.27;;;6.21;69.08
64460;BME280;50828;53.756;21.140;2023-02-13T13:28:31;101084.19;;;6.20;68.93
64460;BME280;50828;53.756;21.140;2023-02-13T13:33:44;101087.16;;;6.21;69.23
64460;BME280;50828;53.756;21.140;2023-02-13T13:39:00;101087.85;;;6.21;68.92
64460;BME280;50828;53.756;21.140;2023-02-13T13:44:26;101079.63;;;6.22;69.16
64460;BME280;50828;53.756;21.140;2023-02-13T13:49:47;101068.08;;;6.23;68.88
64460;BME280;50828;53.756;21.140;2023-02-13T13:55:00;101063.88;;;6.24;68.86
64460;BME280;50828;53.756;21.140;2023-02-13T14:00:27;101055.65;;;6.24;68.85
64460;BME280;50828;53.756;21.140;2023-02-13T14:06:00;101035.02;;;6.24;68.76
64460;BME280;50828;53.756;21.140;2023-02-13T14:11:37;101039.56;;;6.24;68.72
64460;BME280;50828;53.756;21.140;2023-02-13T14:16:46;101048.31;;;6.23;69.00
64460;BME280;50828;53.756;21.140;2023-02-13T14:21:55;101061.96;;;6.22;69.04
64460;BME280;50828;53.756;21.140;2023-02-13T14:27:25;101067.39;;;6.21;68.87
64460;BME280;50828;53.756;21.140;2023-02-13T14:32:36;101068.09;;;6.22;68.96
64460;BME280;50828;53.756;21.140;2023-02-13T14:37:51;101075.08;;;6.21;69.13
64460;BME280;50828;53.756;21.140;2023-02-13T14:43:16;101079.63;;;6.22;69.02
64460;BME280;50828;53.756;21.140;2023-02-13T14:48:34;101070.35;;;6.22;68.97
64460;BME280;50828;53.756;21.140;2023-02-13T14:53:50;101068.77;;;6.22;68.86
64460;BME280;50828;53.756;21.140;2023-02-13T14:59:08;101063.00;;;6.23;68.87
64460;BME280;50828;53.756;21.140;2023-02-13T15:04:23;101056.53;;;6.23;68.96
64460;BME280;50828;53.756;21.140;2023-02-13T15:09:37;101051.45;;;6.23;69.06
64460;BME280;50828;53.756;21.140;2023-02-13T15:14:47;101052.85;;;6.23;68.91
64460;BME280;50828;53.756;21.140;2023-02-13T15:19:59;101039.92;;;6.22;68.93
64460;BME280;50828;53.756;21.140;2023-02-13T15:25:23;101054.61;;;6.21;68.93
64460;BME280;50828;53.756;21.140;2023-02-13T15:30:34;101043.42;;;6.22;68.93
64460;BME280;50828;53.756;21.140;2023-02-13T15:35:43;101036.60;;;6.22;68.66
64460;BME280;50828;53.756;21.140;2023-02-13T15:40:52;101051.12;;;6.22;68.79
64460;BME280;50828;53.756;21.140;2023-02-13T15:46:05;101059.34;;;6.21;68.45
64460;BME280;50828;53.756;21.140;2023-02-13T15:51:21;101062.14;;;6.22;68.32
64460;BME280;50828;53.756;21.140;2023-02-13T15:56:30;101072.81;;;6.21;68.28
64460;BME280;50828;53.756;21.140;2023-02-13T16:01:38;101077.71;;;6.22;68.38
64460;BME280;50828;53.756;21.140;2023-02-13T16:06:56;101070.91;;;6.19;68.23
64460;BME280;50828;53.756;21.140;2023-02-13T16:12:06;101067.75;;;6.20;68.16
64460;BME280;50828;53.756;21.140;2023-02-13T16:17:28;101063.05;;;6.18;68.01
64460;BME280;50828;53.756;21.140;2023-02-13T16:22:39;101056.27;;;6.13;67.87
64460;BME280;50828;53.756;21.140;2023-02-13T16:27:51;101077.81;;;6.07;67.74
64460;BME280;50828;53.756;21.140;2023-02-13T16:33:22;101086.23;;;6.01;67.90
64460;BME280;50828;53.756;21.140;2023-02-13T16:38:35;101092.37;;;5.96;67.63
64460;BME280;50828;53.756;21.140;2023-02-13T16:43:46;101099.88;;;5.92;67.79
64460;BME280;50828;53.756;21.140;2023-02-13T16:49:12;101096.77;;;5.87;67.74
64460;BME280;50828;53.756;21.140;2023-02-13T16:54:26;101107.97;;;5.84;67.75
64460;BME280;50828;53.756;21.140;2023-02-13T16:59:49;101115.33;;;5.80;67.93
64460;BME280;50828;53.756;21.140;2023-02-13T17:04:56;101127.58;;;5.78;67.92
64460;BME280;50828;53.756;21.140;2023-02-13T17:10:19;101125.33;;;5.73;67.82
64460;BME280;50828;53.756;21.140;2023-02-13T17:15:30;101127.97;;;5.67;67.81
64460;BME280;50828;53.756;21.140;2023-02-13T17:20:39;101124.67;;;5.62;68.00
64460;BME280;50828;53.756;21.140;2023-02-13T17:25:48;101120.32;;;5.59;67.93
64460;BME280;50828;53.756;21.140;2023-02-13T17:30:57;101124.70;;;5.55;67.89
64460;BME280;50828;53.756;21.140;2023-02-13T17:36:08;101123.14;;;5.51;67.98
64460;BME280;50828;53.756;21.140;2023-02-13T17:41:18;101118.77;;;5.47;68.13
64460;BME280;50828;53.756;21.140;2023-02-13T17:46:26;101120.88;;;5.46;67.99
64460;BME280;50828;53.756;21.140;2023-02-13T17:51:34;101123.86;;;5.42;68.06
64460;BME280;50828;53.756;21.140;2023-02-13T17:56:43;101121.77;;;5.43;68.00
64460;BME280;50828;53.756;21.140;2023-02-13T18:01:51;101128.75;;;5.42;68.00
64460;BME280;50828;53.756;21.140;2023-02-13T18:06:59;101133.48;;;5.41;67.96
64460;BME280;50828;53.756;21.140;2023-02-13T18:12:11;101135.58;;;5.39;68.13
64460;BME280;50828;53.756;21.140;2023-02-13T18:17:24;101137.86;;;5.37;68.15
64460;BME280;50828;53.756;21.140;2023-02-13T18:22:33;101132.79;;;5.37;68.12
64460;BME280;50828;53.756;21.140;2023-02-13T18:27:41;101135.93;;;5.33;68.21
64460;BME280;50828;53.756;21.140;2023-02-13T18:32:51;101144.15;;;5.32;68.11
64460;BME280;50828;53.756;21.140;2023-02-13T18:38:01;101140.65;;;5.31;68.10
64460;BME280;50828;53.756;21.140;2023-02-13T18:43:09;101147.66;;;5.27;68.31
64460;BME280;50828;53.756;21.140;2023-02-13T18:48:24;101164.24;;;5.30;68.24
64460;BME280;50828;53.756;21.140;2023-02-13T18:53:32;101158.83;;;5.28;68.34
64460;BME280;50828;53.756;21.140;2023-02-13T18:58:40;101162.67;;;5.27;68.46
64460;BME280;50828;53.756;21.140;2023-02-13T19:03:49;101173.52;;;5.26;68.51
64460;BME280;50828;53.756;21.140;2023-02-13T19:08:58;101178.92;;;5.26;68.48
64460;BME280;50828;53.756;21.140;2023-02-13T19:14:09;101177.69;;;5.28;68.52
64460;BME280;50828;53.756;21.140;2023-02-13T19:19:19;101173.16;;;5.27;68.56
64460;BME280;50828;53.756;21.140;2023-02-13T19:24:27;101177.35;;;5.27;68.55
64460;BME280;50828;53.756;21.140;2023-02-13T19:29:35;101185.23;;;5.26;68.60
64460;BME280;50828;53.756;21.140;2023-02-13T19:34:43;101186.79;;;5.27;68.65
64460;BME280;50828;53.756;21.140;2023-02-13T19:39:52;101193.77;;;5.25;68.72
64460;BME280;50828;53.756;21.140;2023-02-13T19:44:59;101187.14;;;5.24;68.87
64460;BME280;50828;53.756;21.140;2023-02-13T19:50:08;101183.98;;;5.25;68.86
64460;BME280;50828;53.756;21.140;2023-02-13T19:55:17;101175.08;;;5.24;68.88
64460;BME280;50828;53.756;21.140;2023-02-13T20:00:32;101171.07;;;5.22;69.00
64460;BME280;50828;53.756;21.140;2023-02-13T20:05:41;101166.53;;;5.19;69.08
64460;BME280;50828;53.756;21.140;2023-02-13T20:10:49;101172.12;;;5.17;69.04
64460;BME280;50828;53.756;21.140;2023-02-13T20:15:57;101181.20;;;5.17;69.24
64460;BME280;50828;53.756;21.140;2023-02-13T20:21:09;101180.16;;;5.15;69.33
64460;BME280;50828;53.756;21.140;2023-02-13T20:26:17;101180.15;;;5.14;69.53
64460;BME280;50828;53.756;21.140;2023-02-13T20:31:26;101176.66;;;5.12;69.38
64460;BME280;50828;53.756;21.140;2023-02-13T20:36:35;101172.30;;;5.05;69.76
64460;BME280;50828;53.756;21.140;2023-02-13T20:41:43;101176.33;;;5.05;69.78
64460;BME280;50828;53.756;21.140;2023-02-13T20:46:53;101178.94;;;5.02;69.71
64460;BME280;50828;53.756;21.140;2023-02-13T20:52:03;101169.34;;;4.97;69.62
64460;BME280;50828;53.756;21.140;2023-02-13T20:57:11;101179.11;;;4.96;69.74
64460;BME280;50828;53.756;21.140;2023-02-13T21:02:20;101175.63;;;4.95;69.80
64460;BME280;50828;53.756;21.140;2023-02-13T21:07:30;101172.48;;;4.93;69.76
64460;BME280;50828;53.756;21.140;2023-02-13T21:12:37;101176.16;;;4.91;70.14
64460;BME280;50828;53.756;21.140;2023-02-13T21:17:46;101174.94;;;4.89;70.00
64460;BME280;50828;53.756;21.140;2023-02-13T21:22:55;101178.77;;;4.88;70.09
64460;BME280;50828;53.756;21.140;2023-02-13T21:28:05;101184.89;;;4.87;70.28
64460;BME280;50828;53.756;21.140;2023-02-13T21:33:13;101194.13;;;4.87;70.11
64460;BME280;50828;53.756;21.140;2023-02-13T21:38:20;101182.95;;;4.86;70.03
64460;BME280;50828;53.756;21.140;2023-02-13T21:43:29;101181.21;;;4.85;70.33
64460;BME280;50828;53.756;21.140;2023-02-13T21:48:36;101184.70;;;4.83;70.28
64460;BME280;50828;53.756;21.140;2023-02-13T21:53:46;101184.88;;;4.82;70.42
64460;BME280;50828;53.756;21.140;2023-02-13T21:58:55;101177.73;;;4.79;70.44
64460;BME280;50828;53.756;21.140;2023-02-13T22:04:06;101178.40;;;4.75;70.49
64460;BME280;50828;53.756;21.140;2023-02-13T22:09:15;101177.00;;;4.76;70.68
64460;BME280;50828;53.756;21.140;2023-02-13T22:14:23;101176.50;;;4.75;70.71
64460;BME280;50828;53.756;21.140;2023-02-13T22:19:31;101178.93;;;4.72;70.47
64460;BME280;50828;53.756;21.140;2023-02-13T22:24:39;101184.35;;;4.71;70.83
64460;BME280;50828;53.756;21.140;2023-02-13T22:29:49;101183.13;;;4.69;70.56
64460;BME280;50828;53.756;21.140;2023-02-13T22:34:56;101179.46;;;4.69;70.89
64460;BME280;50828;53.756;21.140;2023-02-13T22:40:06;101180.85;;;4.65;70.72
64460;BME280;50828;53.756;21.140;2023-02-13T22:45:14;101191.84;;;4.68;70.92
64460;BME280;50828;53.756;21.140;2023-02-13T22:50:25;101192.89;;;4.65;70.73
64460;BME280;50828;53.756;21.140;2023-02-13T22:55:32;101205.97;;;4.66;70.84
64460;BME280;50828;53.756;21.140;2023-02-13T23:00:42;101207.20;;;4.67;70.74
64460;BME280;50828;53.756;21.140;2023-02-13T23:05:50;101201.43;;;4.64;71.10
64460;BME280;50828;53.756;21.140;2023-02-13T23:10:58;101201.08;;;4.63;71.11
64460;BME280;50828;53.756;21.140;2023-02-13T23:16:28;101211.39;;;4.63;70.95
64460;BME280;50828;53.756;21.140;2023-02-13T23:21:57;101217.48;;;4.61;71.10
64460;BME280;50828;53.756;21.140;2023-02-13T23:27:06;101226.03;;;4.64;71.13
64460;BME280;50828;53.756;21.140;2023-02-13T23:32:14;101227.95;;;4.64;70.98
64460;BME280;50828;53.756;21.140;2023-02-13T23:37:23;101228.31;;;4.63;71.14
64460;BME280;50828;53.756;21.140;2023-02-13T23:42:31;101225.52;;;4.63;71.02
64460;BME280;50828;53.756;21.140;2023-02-13T23:47:39;101216.61;;;4.59;71.14
64460;BME280;50828;53.756;21.140;2023-02-13T23:52:47;101221.50;;;4.60;71.21
64460;BME280;50828;53.756;21.140;2023-02-13T23:57:56;101209.27;;;4.57;71.08
